sensor_id;sensor_type;location;lat;lon;timestamp;P1;durP1;ratioP1;P2;durP2;ratioP2
15712;SDS011;7957;51.608;6.916;2023-08-08T00:01:47;3.53;;;2.60;;
15712;SDS011;7957;51.608;6.916;2023-08-08T00:04:13;3.53;;;2.10;;
15712;SDS011;7957;51.608;6.916;2023-08-08T00:06:40;3.17;;;2.10;;
15712;SDS011;7957;51.608;6.916;2023-08-08T00:09:07;3.00;;;2.37;;
15712;SDS011;7957;51.608;6.916;2023-08-08T00:11:35;2.43;;;2.20;;
15712;SDS011;7957;51.608;6.916;2023-08-08T00:14:04;5.27;;;2.27;;
15712;SDS011;7957;51.608;6.916;2023-08-08T00:16:31;2.47;;;2.27;;
15712;SDS011;7957;51.608;6.916;2023-08-08T00:18:58;2.43;;;2.23;;
15712;SDS011;7957;51.608;6.916;2023-08-08T00:21:25;3.00;;;2.20;;
15712;SDS011;7957;51.608;6.916;2023-08-08T00:23:52;3.30;;;2.40;;
15712;SDS011;7957;51.608;6.916;2023-08-08T00:26:19;3.13;;;2.23;;
15712;SDS011;7957;51.608;6.916;2023-08-08T00:28:45;2.73;;;2.23;;
15712;SDS011;7957;51.608;6.916;2023-08-08T00:31:15;2.43;;;2.17;;
15712;SDS011;7957;51.608;6.916;2023-08-08T00:33:44;3.77;;;2.33;;
15712;SDS011;7957;51.608;6.916;2023-08-08T00:36:11;3.13;;;2.30;;
15712;SDS011;7957;51.608;6.916;2023-08-08T00:38:38;2.40;;;2.20;;
15712;SDS011;7957;51.608;6.916;2023-08-08T00:41:06;4.90;;;2.20;;
15712;SDS011;7957;51.608;6.916;2023-08-08T00:43:32;3.13;;;2.40;;
15712;SDS011;7957;51.608;6.916;2023-08-08T00:45:59;2.30;;;2.00;;
15712;SDS011;7957;51.608;6.916;2023-08-08T00:48:27;2.60;;;2.40;;
15712;SDS011;7957;51.608;6.916;2023-08-08T00:50:54;3.23;;;2.43;;
15712;SDS011;7957;51.608;6.916;2023-08-08T00:53:22;2.43;;;2.20;;
15712;SDS011;7957;51.608;6.916;2023-08-08T00:55:51;4.33;;;2.27;;
15712;SDS011;7957;51.608;6.916;2023-08-08T00:58:19;2.70;;;2.33;;
15712;SDS011;7957;51.608;6.916;2023-08-08T01:00:46;3.73;;;2.50;;
15712;SDS011;7957;51.608;6.916;2023-08-08T01:03:13;3.60;;;2.33;;
15712;SDS011;7957;51.608;6.916;2023-08-08T01:05:43;2.63;;;2.30;;
15712;SDS011;7957;51.608;6.916;2023-08-08T01:08:33;3.90;;;2.63;;
15712;SDS011;7957;51.608;6.916;2023-08-08T01:11:08;3.93;;;2.40;;
15712;SDS011;7957;51.608;6.916;2023-08-08T01:13:35;2.53;;;2.30;;
15712;SDS011;7957;51.608;6.916;2023-08-08T01:16:04;4.63;;;2.30;;
15712;SDS011;7957;51.608;6.916;2023-08-08T01:18:32;3.50;;;2.40;;
15712;SDS011;7957;51.608;6.916;2023-08-08T01:21:01;3.03;;;2.20;;
15712;SDS011;7957;51.608;6.916;2023-08-08T01:23:30;2.97;;;2.37;;
15712;SDS011;7957;51.608;6.916;2023-08-08T01:26:02;3.13;;;2.13;;
15712;SDS011;7957;51.608;6.916;2023-08-08T01:28:29;3.30;;;2.57;;
15712;SDS011;7957;51.608;6.916;2023-08-08T01:30:56;2.63;;;2.37;;
15712;SDS011;7957;51.608;6.916;2023-08-08T01:33:23;3.37;;;2.10;;
15712;SDS011;7957;51.608;6.916;2023-08-08T01:35:50;3.60;;;2.50;;
15712;SDS011;7957;51.608;6.916;2023-08-08T01:38:21;2.43;;;2.20;;
15712;SDS011;7957;51.608;6.916;2023-08-08T01:40:52;4.23;;;2.30;;
15712;SDS011;7957;51.608;6.916;2023-08-08T01:43:24;2.50;;;2.30;;
15712;SDS011;7957;51.608;6.916;2023-08-08T01:45:51;2.87;;;2.40;;
15712;SDS011;7957;51.608;6.916;2023-08-08T01:48:19;2.57;;;2.30;;
15712;SDS011;7957;51.608;6.916;2023-08-08T01:50:46;3.10;;;2.00;;
15712;SDS011;7957;51.608;6.916;2023-08-08T01:53:13;2.30;;;2.10;;
15712;SDS011;7957;51.608;6.916;2023-08-08T01:55:40;2.90;;;2.40;;
15712;SDS011;7957;51.608;6.916;2023-08-08T01:58:07;2.63;;;2.30;;
15712;SDS011;7957;51.608;6.916;2023-08-08T02:00:35;3.63;;;2.57;;
15712;SDS011;7957;51.608;6.916;2023-08-08T02:03:02;3.20;;;2.20;;
15712;SDS011;7957;51.608;6.916;2023-08-08T02:05:30;4.67;;;2.80;;
15712;SDS011;7957;51.608;6.916;2023-08-08T02:07:56;3.97;;;2.70;;
15712;SDS011;7957;51.608;6.916;2023-08-08T02:10:23;2.60;;;2.40;;
15712;SDS011;7957;51.608;6.916;2023-08-08T02:12:51;2.40;;;2.20;;
15712;SDS011;7957;51.608;6.916;2023-08-08T02:15:17;3.30;;;2.60;;
15712;SDS011;7957;51.608;6.916;2023-08-08T02:17:46;3.07;;;2.23;;
15712;SDS011;7957;51.608;6.916;2023-08-08T02:20:13;4.43;;;2.47;;
15712;SDS011;7957;51.608;6.916;2023-08-08T02:22:40;3.13;;;2.63;;
15712;SDS011;7957;51.608;6.916;2023-08-08T02:25:07;4.37;;;2.60;;
15712;SDS011;7957;51.608;6.916;2023-08-08T02:27:34;3.50;;;2.43;;
15712;SDS011;7957;51.608;6.916;2023-08-08T02:30:01;3.67;;;2.60;;
15712;SDS011;7957;51.608;6.916;2023-08-08T02:32:28;4.40;;;2.30;;
15712;SDS011;7957;51.608;6.916;2023-08-08T02:34:56;3.77;;;2.60;;
15712;SDS011;7957;51.608;6.916;2023-08-08T02:37:23;3.57;;;2.37;;
15712;SDS011;7957;51.608;6.916;2023-08-08T02:39:50;3.50;;;2.43;;
15712;SDS011;7957;51.608;6.916;2023-08-08T02:42:17;4.37;;;2.50;;
15712;SDS011;7957;51.608;6.916;2023-08-08T02:44:44;3.80;;;2.60;;
15712;SDS011;7957;51.608;6.916;2023-08-08T02:47:11;2.47;;;2.27;;
15712;SDS011;7957;51.608;6.916;2023-08-08T02:49:38;4.00;;;2.80;;
15712;SDS011;7957;51.608;6.916;2023-08-08T02:52:06;3.13;;;2.40;;
15712;SDS011;7957;51.608;6.916;2023-08-08T02:54:33;3.10;;;2.40;;
15712;SDS011;7957;51.608;6.916;2023-08-08T02:57:00;2.90;;;2.60;;
15712;SDS011;7957;51.608;6.916;2023-08-08T02:59:27;4.10;;;2.43;;
15712;SDS011;7957;51.608;6.916;2023-08-08T03:01:54;3.30;;;2.40;;
15712;SDS011;7957;51.608;6.916;2023-08-08T03:04:21;4.97;;;3.20;;
15712;SDS011;7957;51.608;6.916;2023-08-08T03:06:48;4.33;;;2.90;;
15712;SDS011;7957;51.608;6.916;2023-08-08T03:09:16;4.53;;;2.70;;
15712;SDS011;7957;51.608;6.916;2023-08-08T03:11:43;5.60;;;2.63;;
15712;SDS011;7957;51.608;6.916;2023-08-08T03:14:10;3.30;;;2.90;;
15712;SDS011;7957;51.608;6.916;2023-08-08T03:16:37;3.13;;;2.43;;
15712;SDS011;7957;51.608;6.916;2023-08-08T03:19:03;4.63;;;2.70;;
15712;SDS011;7957;51.608;6.916;2023-08-08T03:21:31;4.53;;;2.80;;
15712;SDS011;7957;51.608;6.916;2023-08-08T03:23:58;2.87;;;2.53;;
15712;SDS011;7957;51.608;6.916;2023-08-08T03:26:26;3.93;;;2.60;;
15712;SDS011;7957;51.608;6.916;2023-08-08T03:28:53;5.50;;;2.80;;
15712;SDS011;7957;51.608;6.916;2023-08-08T03:31:20;2.70;;;2.50;;
15712;SDS011;7957;51.608;6.916;2023-08-08T03:33:47;4.50;;;2.70;;
15712;SDS011;7957;51.608;6.916;2023-08-08T03:36:16;3.70;;;2.63;;
15712;SDS011;7957;51.608;6.916;2023-08-08T03:38:43;3.67;;;2.70;;
15712;SDS011;7957;51.608;6.916;2023-08-08T03:41:11;4.93;;;3.00;;
15712;SDS011;7957;51.608;6.916;2023-08-08T03:43:39;4.53;;;3.53;;
15712;SDS011;7957;51.608;6.916;2023-08-08T03:46:06;3.97;;;3.30;;
15712;SDS011;7957;51.608;6.916;2023-08-08T03:48:34;5.37;;;2.90;;
15712;SDS011;7957;51.608;6.916;2023-08-08T03:51:01;5.00;;;2.80;;
15712;SDS011;7957;51.608;6.916;2023-08-08T03:53:28;5.13;;;3.10;;
15712;SDS011;7957;51.608;6.916;2023-08-08T03:55:55;3.87;;;2.93;;
15712;SDS011;7957;51.608;6.916;2023-08-08T03:58:21;4.67;;;3.20;;
15712;SDS011;7957;51.608;6.916;2023-08-08T04:00:50;6.07;;;2.97;;
15712;SDS011;7957;51.608;6.916;2023-08-08T04:03:17;3.70;;;2.93;;
15712;SDS011;7957;51.608;6.916;2023-08-08T04:05:44;5.00;;;3.17;;
15712;SDS011;7957;51.608;6.916;2023-08-08T04:08:12;6.83;;;3.30;;
15712;SDS011;7957;51.608;6.916;2023-08-08T04:10:39;4.77;;;2.97;;
15712;SDS011;7957;51.608;6.916;2023-08-08T04:13:06;6.70;;;3.60;;
15712;SDS011;7957;51.608;6.916;2023-08-08T04:15:33;5.77;;;3.50;;
15712;SDS011;7957;51.608;6.916;2023-08-08T04:18:02;5.97;;;3.13;;
15712;SDS011;7957;51.608;6.916;2023-08-08T04:20:31;6.37;;;3.37;;
15712;SDS011;7957;51.608;6.916;2023-08-08T04:22:58;5.23;;;3.43;;
15712;SDS011;7957;51.608;6.916;2023-08-08T04:25:25;5.70;;;3.70;;
15712;SDS011;7957;51.608;6.916;2023-08-08T04:27:55;3.67;;;3.20;;
15712;SDS011;7957;51.608;6.916;2023-08-08T04:30:22;4.67;;;3.60;;
15712;SDS011;7957;51.608;6.916;2023-08-08T04:32:49;6.90;;;3.80;;
15712;SDS011;7957;51.608;6.916;2023-08-08T04:35:17;5.50;;;3.83;;
15712;SDS011;7957;51.608;6.916;2023-08-08T04:37:44;5.67;;;3.47;;
15712;SDS011;7957;51.608;6.916;2023-08-08T04:40:11;5.10;;;3.43;;
15712;SDS011;7957;51.608;6.916;2023-08-08T04:42:38;5.50;;;3.30;;
15712;SDS011;7957;51.608;6.916;2023-08-08T04:45:06;5.70;;;3.60;;
15712;SDS011;7957;51.608;6.916;2023-08-08T04:47:33;7.97;;;3.90;;
15712;SDS011;7957;51.608;6.916;2023-08-08T04:50:00;5.07;;;3.37;;
15712;SDS011;7957;51.608;6.916;2023-08-08T04:52:29;4.73;;;3.70;;
15712;SDS011;7957;51.608;6.916;2023-08-08T04:54:55;6.43;;;3.83;;
15712;SDS011;7957;51.608;6.916;2023-08-08T04:57:22;6.07;;;3.80;;
15712;SDS011;7957;51.608;6.916;2023-08-08T04:59:49;6.60;;;3.87;;
15712;SDS011;7957;51.608;6.916;2023-08-08T05:02:16;6.93;;;4.03;;
15712;SDS011;7957;51.608;6.916;2023-08-08T05:04:43;7.53;;;4.17;;
15712;SDS011;7957;51.608;6.916;2023-08-08T05:07:10;5.87;;;4.13;;
15712;SDS011;7957;51.608;6.916;2023-08-08T05:09:39;7.20;;;4.20;;
15712;SDS011;7957;51.608;6.916;2023-08-08T05:12:06;6.60;;;4.00;;
15712;SDS011;7957;51.608;6.916;2023-08-08T05:14:35;5.63;;;3.90;;
15712;SDS011;7957;51.608;6.916;2023-08-08T05:17:03;7.17;;;4.20;;
15712;SDS011;7957;51.608;6.916;2023-08-08T05:19:31;5.70;;;4.17;;
15712;SDS011;7957;51.608;6.916;2023-08-08T05:21:59;6.40;;;4.23;;
15712;SDS011;7957;51.608;6.916;2023-08-08T05:24:25;6.40;;;4.50;;
15712;SDS011;7957;51.608;6.916;2023-08-08T05:26:54;11.10;;;4.50;;
15712;SDS011;7957;51.608;6.916;2023-08-08T05:29:21;6.33;;;4.40;;
15712;SDS011;7957;51.608;6.916;2023-08-08T05:31:48;7.47;;;4.57;;
15712;SDS011;7957;51.608;6.916;2023-08-08T05:34:15;6.57;;;4.47;;
15712;SDS011;7957;51.608;6.916;2023-08-08T05:36:42;9.00;;;4.90;;
15712;SDS011;7957;51.608;6.916;2023-08-08T05:39:08;7.47;;;4.13;;
15712;SDS011;7957;51.608;6.916;2023-08-08T05:41:35;6.50;;;4.63;;
15712;SDS011;7957;51.608;6.916;2023-08-08T05:44:04;8.17;;;4.77;;
15712;SDS011;7957;51.608;6.916;2023-08-08T05:46:31;9.90;;;4.80;;
15712;SDS011;7957;51.608;6.916;2023-08-08T05:48:58;8.43;;;5.20;;
15712;SDS011;7957;51.608;6.916;2023-08-08T05:51:26;7.77;;;5.37;;
15712;SDS011;7957;51.608;6.916;2023-08-08T05:53:53;8.57;;;5.20;;
15712;SDS011;7957;51.608;6.916;2023-08-08T05:56:20;7.70;;;5.00;;
15712;SDS011;7957;51.608;6.916;2023-08-08T05:58:47;9.23;;;5.50;;
15712;SDS011;7957;51.608;6.916;2023-08-08T06:01:16;9.60;;;5.33;;
15712;SDS011;7957;51.608;6.916;2023-08-08T06:03:43;7.60;;;5.80;;
15712;SDS011;7957;51.608;6.916;2023-08-08T06:06:09;9.83;;;5.30;;
15712;SDS011;7957;51.608;6.916;2023-08-08T06:08:36;9.53;;;6.03;;
15712;SDS011;7957;51.608;6.916;2023-08-08T06:11:03;8.20;;;6.33;;
15712;SDS011;7957;51.608;6.916;2023-08-08T06:13:30;6.10;;;5.50;;
15712;SDS011;7957;51.608;6.916;2023-08-08T06:15:57;10.70;;;6.20;;
15712;SDS011;7957;51.608;6.916;2023-08-08T06:18:27;10.70;;;7.10;;
15712;SDS011;7957;51.608;6.916;2023-08-08T06:20:54;7.87;;;6.60;;
15712;SDS011;7957;51.608;6.916;2023-08-08T06:23:21;7.60;;;6.33;;
15712;SDS011;7957;51.608;6.916;2023-08-08T06:25:48;8.70;;;6.57;;
15712;SDS011;7957;51.608;6.916;2023-08-08T06:28:15;11.00;;;6.93;;
15712;SDS011;7957;51.608;6.916;2023-08-08T06:30:42;11.63;;;7.30;;
15712;SDS011;7957;51.608;6.916;2023-08-08T06:33:09;7.40;;;6.33;;
15712;SDS011;7957;51.608;6.916;2023-08-08T06:35:38;9.83;;;7.00;;
15712;SDS011;7957;51.608;6.916;2023-08-08T06:38:05;10.90;;;7.53;;
15712;SDS011;7957;51.608;6.916;2023-08-08T06:40:33;9.33;;;7.10;;
15712;SDS011;7957;51.608;6.916;2023-08-08T06:43:00;12.20;;;8.20;;
15712;SDS011;7957;51.608;6.916;2023-08-08T06:45:27;9.23;;;7.77;;
15712;SDS011;7957;51.608;6.916;2023-08-08T06:47:54;11.60;;;7.77;;
15712;SDS011;7957;51.608;6.916;2023-08-08T06:50:22;11.20;;;8.23;;
15712;SDS011;7957;51.608;6.916;2023-08-08T06:52:51;13.17;;;7.93;;
15712;SDS011;7957;51.608;6.916;2023-08-08T06:55:18;10.67;;;8.30;;
15712;SDS011;7957;51.608;6.916;2023-08-08T06:57:45;10.80;;;8.23;;
15712;SDS011;7957;51.608;6.916;2023-08-08T07:00:13;9.73;;;8.53;;
15712;SDS011;7957;51.608;6.916;2023-08-08T07:02:41;11.00;;;7.87;;
15712;SDS011;7957;51.608;6.916;2023-08-08T07:05:08;10.97;;;7.43;;
15712;SDS011;7957;51.608;6.916;2023-08-08T07:07:35;11.33;;;8.13;;
15712;SDS011;7957;51.608;6.916;2023-08-08T07:10:05;11.43;;;8.37;;
15712;SDS011;7957;51.608;6.916;2023-08-08T07:12:32;10.40;;;7.07;;
15712;SDS011;7957;51.608;6.916;2023-08-08T07:15:00;9.97;;;7.60;;
15712;SDS011;7957;51.608;6.916;2023-08-08T07:17:27;8.70;;;6.47;;
15712;SDS011;7957;51.608;6.916;2023-08-08T07:19:54;7.23;;;6.53;;
15712;SDS011;7957;51.608;6.916;2023-08-08T07:22:21;11.13;;;8.20;;
15712;SDS011;7957;51.608;6.916;2023-08-08T07:24:48;10.23;;;7.20;;
15712;SDS011;7957;51.608;6.916;2023-08-08T07:27:16;10.77;;;8.30;;
15712;SDS011;7957;51.608;6.916;2023-08-08T07:29:44;11.17;;;8.33;;
15712;SDS011;7957;51.608;6.916;2023-08-08T07:32:11;13.07;;;8.63;;
15712;SDS011;7957;51.608;6.916;2023-08-08T07:34:37;8.77;;;7.83;;
15712;SDS011;7957;51.608;6.916;2023-08-08T07:37:04;11.50;;;8.23;;
15712;SDS011;7957;51.608;6.916;2023-08-08T07:39:32;13.73;;;8.23;;
15712;SDS011;7957;51.608;6.916;2023-08-08T07:41:59;12.80;;;7.93;;
15712;SDS011;7957;51.608;6.916;2023-08-08T07:44:27;10.90;;;8.17;;
15712;SDS011;7957;51.608;6.916;2023-08-08T07:46:54;10.07;;;7.73;;
15712;SDS011;7957;51.608;6.916;2023-08-08T07:49:21;11.60;;;7.33;;
15712;SDS011;7957;51.608;6.916;2023-08-08T07:51:50;8.90;;;6.87;;
15712;SDS011;7957;51.608;6.916;2023-08-08T07:54:17;12.40;;;7.13;;
15712;SDS011;7957;51.608;6.916;2023-08-08T07:56:44;10.47;;;7.50;;
15712;SDS011;7957;51.608;6.916;2023-08-08T07:59:11;8.73;;;6.17;;
15712;SDS011;7957;51.608;6.916;2023-08-08T08:01:40;11.23;;;6.97;;
15712;SDS011;7957;51.608;6.916;2023-08-08T08:04:06;10.27;;;6.70;;
15712;SDS011;7957;51.608;6.916;2023-08-08T08:06:33;9.83;;;7.43;;
15712;SDS011;7957;51.608;6.916;2023-08-08T08:09:00;8.67;;;6.53;;
15712;SDS011;7957;51.608;6.916;2023-08-08T08:11:28;9.67;;;6.30;;
15712;SDS011;7957;51.608;6.916;2023-08-08T08:13:55;10.00;;;6.27;;
15712;SDS011;7957;51.608;6.916;2023-08-08T08:16:22;10.37;;;6.40;;
15712;SDS011;7957;51.608;6.916;2023-08-08T08:18:50;7.50;;;5.27;;
15712;SDS011;7957;51.608;6.916;2023-08-08T08:21:18;9.13;;;5.53;;
15712;SDS011;7957;51.608;6.916;2023-08-08T08:23:45;9.10;;;5.20;;
15712;SDS011;7957;51.608;6.916;2023-08-08T08:26:12;8.63;;;4.60;;
15712;SDS011;7957;51.608;6.916;2023-08-08T08:28:39;5.37;;;3.83;;
15712;SDS011;7957;51.608;6.916;2023-08-08T08:31:06;8.03;;;4.10;;
15712;SDS011;7957;51.608;6.916;2023-08-08T08:33:34;8.97;;;4.43;;
15712;SDS011;7957;51.608;6.916;2023-08-08T08:36:02;7.67;;;4.13;;
15712;SDS011;7957;51.608;6.916;2023-08-08T08:38:29;6.33;;;3.70;;
15712;SDS011;7957;51.608;6.916;2023-08-08T08:40:56;7.77;;;3.30;;
15712;SDS011;7957;51.608;6.916;2023-08-08T08:43:24;7.53;;;3.47;;
15712;SDS011;7957;51.608;6.916;2023-08-08T08:45:52;6.33;;;3.77;;
15712;SDS011;7957;51.608;6.916;2023-08-08T08:48:19;11.30;;;4.60;;
15712;SDS011;7957;51.608;6.916;2023-08-08T08:50:47;6.63;;;4.00;;
15712;SDS011;7957;51.608;6.916;2023-08-08T08:53:16;8.50;;;3.87;;
15712;SDS011;7957;51.608;6.916;2023-08-08T08:55:43;9.97;;;3.90;;
15712;SDS011;7957;51.608;6.916;2023-08-08T08:58:12;6.07;;;3.27;;
15712;SDS011;7957;51.608;6.916;2023-08-08T09:00:41;7.50;;;3.07;;
15712;SDS011;7957;51.608;6.916;2023-08-08T09:03:10;5.67;;;3.10;;
15712;SDS011;7957;51.608;6.916;2023-08-08T09:05:37;5.23;;;3.03;;
15712;SDS011;7957;51.608;6.916;2023-08-08T09:08:06;5.57;;;2.97;;
15712;SDS011;7957;51.608;6.916;2023-08-08T09:10:34;7.53;;;3.10;;
15712;SDS011;7957;51.608;6.916;2023-08-08T09:13:02;5.87;;;2.77;;
15712;SDS011;7957;51.608;6.916;2023-08-08T09:15:29;6.73;;;3.30;;
15712;SDS011;7957;51.608;6.916;2023-08-08T09:17:57;8.17;;;3.47;;
15712;SDS011;7957;51.608;6.916;2023-08-08T09:20:25;9.97;;;3.23;;
15712;SDS011;7957;51.608;6.916;2023-08-08T09:22:54;5.97;;;3.13;;
15712;SDS011;7957;51.608;6.916;2023-08-08T09:25:21;5.83;;;3.20;;
15712;SDS011;7957;51.608;6.916;2023-08-08T09:27:50;6.30;;;3.43;;
15712;SDS011;7957;51.608;6.916;2023-08-08T09:30:17;5.37;;;3.03;;
15712;SDS011;7957;51.608;6.916;2023-08-08T09:32:44;9.63;;;3.33;;
15712;SDS011;7957;51.608;6.916;2023-08-08T09:35:11;4.87;;;3.00;;
15712;SDS011;7957;51.608;6.916;2023-08-08T09:37:38;7.90;;;3.53;;
15712;SDS011;7957;51.608;6.916;2023-08-08T09:40:06;8.03;;;3.70;;
15712;SDS011;7957;51.608;6.916;2023-08-08T09:42:36;6.17;;;3.20;;
15712;SDS011;7957;51.608;6.916;2023-08-08T09:45:05;8.03;;;3.30;;
15712;SDS011;7957;51.608;6.916;2023-08-08T09:47:35;8.60;;;3.10;;
15712;SDS011;7957;51.608;6.916;2023-08-08T09:50:03;8.03;;;3.17;;
15712;SDS011;7957;51.608;6.916;2023-08-08T09:52:31;7.80;;;2.90;;
15712;SDS011;7957;51.608;6.916;2023-08-08T09:55:00;6.00;;;3.00;;
15712;SDS011;7957;51.608;6.916;2023-08-08T09:57:27;6.10;;;3.20;;
15712;SDS011;7957;51.608;6.916;2023-08-08T09:59:55;6.37;;;3.10;;
15712;SDS011;7957;51.608;6.916;2023-08-08T10:02:23;5.37;;;2.80;;
15712;SDS011;7957;51.608;6.916;2023-08-08T10:04:50;8.70;;;2.97;;
15712;SDS011;7957;51.608;6.916;2023-08-08T10:07:19;6.47;;;3.40;;
15712;SDS011;7957;51.608;6.916;2023-08-08T10:09:46;5.53;;;3.27;;
15712;SDS011;7957;51.608;6.916;2023-08-08T10:12:13;8.03;;;3.57;;
15712;SDS011;7957;51.608;6.916;2023-08-08T10:14:42;5.37;;;3.23;;
15712;SDS011;7957;51.608;6.916;2023-08-08T10:17:12;9.43;;;3.37;;
15712;SDS011;7957;51.608;6.916;2023-08-08T10:19:41;6.97;;;3.20;;
15712;SDS011;7957;51.608;6.916;2023-08-08T10:22:19;8.07;;;3.73;;
15712;SDS011;7957;51.608;6.916;2023-08-08T10:24:50;7.23;;;3.50;;
15712;SDS011;7957;51.608;6.916;2023-08-08T10:27:26;6.00;;;3.10;;
15712;SDS011;7957;51.608;6.916;2023-08-08T10:30:00;5.43;;;2.70;;
15712;SDS011;7957;51.608;6.916;2023-08-08T10:32:27;3.53;;;2.33;;
15712;SDS011;7957;51.608;6.916;2023-08-08T10:34:56;7.17;;;2.97;;
15712;SDS011;7957;51.608;6.916;2023-08-08T10:37:26;5.57;;;3.00;;
15712;SDS011;7957;51.608;6.916;2023-08-08T10:39:53;8.43;;;3.50;;
15712;SDS011;7957;51.608;6.916;2023-08-08T10:42:20;5.37;;;2.80;;
15712;SDS011;7957;51.608;6.916;2023-08-08T10:44:51;7.03;;;2.80;;
15712;SDS011;7957;51.608;6.916;2023-08-08T10:47:21;7.10;;;2.97;;
15712;SDS011;7957;51.608;6.916;2023-08-08T10:49:57;5.00;;;2.67;;
15712;SDS011;7957;51.608;6.916;2023-08-08T10:52:25;5.63;;;2.70;;
15712;SDS011;7957;51.608;6.916;2023-08-08T10:54:52;6.37;;;2.80;;
15712;SDS011;7957;51.608;6.916;2023-08-08T10:57:20;5.77;;;2.87;;
15712;SDS011;7957;51.608;6.916;2023-08-08T10:59:50;3.93;;;2.77;;
15712;SDS011;7957;51.608;6.916;2023-08-08T11:02:18;6.00;;;2.83;;
15712;SDS011;7957;51.608;6.916;2023-08-08T11:04:47;6.37;;;3.30;;
15712;SDS011;7957;51.608;6.916;2023-08-08T11:07:16;7.97;;;3.10;;
15712;SDS011;7957;51.608;6.916;2023-08-08T11:09:43;4.50;;;3.00;;
15712;SDS011;7957;51.608;6.916;2023-08-08T11:12:13;4.53;;;3.03;;
15712;SDS011;7957;51.608;6.916;2023-08-08T11:14:41;5.70;;;3.00;;
15712;SDS011;7957;51.608;6.916;2023-08-08T11:17:08;7.63;;;3.20;;
15712;SDS011;7957;51.608;6.916;2023-08-08T11:19:40;5.83;;;3.00;;
15712;SDS011;7957;51.608;6.916;2023-08-08T11:22:10;7.23;;;2.97;;
15712;SDS011;7957;51.608;6.916;2023-08-08T11:24:39;5.40;;;2.90;;
15712;SDS011;7957;51.608;6.916;2023-08-08T11:27:06;4.93;;;2.70;;
15712;SDS011;7957;51.608;6.916;2023-08-08T11:29:33;3.80;;;2.37;;
15712;SDS011;7957;51.608;6.916;2023-08-08T11:32:00;5.83;;;2.80;;
15712;SDS011;7957;51.608;6.916;2023-08-08T11:34:29;4.63;;;2.70;;
15712;SDS011;7957;51.608;6.916;2023-08-08T11:36:58;4.30;;;2.50;;
15712;SDS011;7957;51.608;6.916;2023-08-08T11:39:25;4.90;;;2.60;;
15712;SDS011;7957;51.608;6.916;2023-08-08T11:41:54;6.23;;;2.70;;
15712;SDS011;7957;51.608;6.916;2023-08-08T11:44:22;6.10;;;3.00;;
15712;SDS011;7957;51.608;6.916;2023-08-08T11:46:49;5.63;;;2.83;;
15712;SDS011;7957;51.608;6.916;2023-08-08T11:49:16;5.07;;;2.63;;
15712;SDS011;7957;51.608;6.916;2023-08-08T11:51:44;7.67;;;3.00;;
15712;SDS011;7957;51.608;6.916;2023-08-08T11:54:11;4.57;;;2.50;;
15712;SDS011;7957;51.608;6.916;2023-08-08T11:56:39;4.30;;;2.40;;
15712;SDS011;7957;51.608;6.916;2023-08-08T11:59:07;4.93;;;2.67;;
15712;SDS011;7957;51.608;6.916;2023-08-08T12:01:37;5.10;;;2.60;;
15712;SDS011;7957;51.608;6.916;2023-08-08T12:04:04;4.53;;;2.50;;
15712;SDS011;7957;51.608;6.916;2023-08-08T12:06:32;4.43;;;2.53;;
15712;SDS011;7957;51.608;6.916;2023-08-08T12:09:02;6.17;;;2.43;;
15712;SDS011;7957;51.608;6.916;2023-08-08T12:11:30;5.47;;;2.47;;
15712;SDS011;7957;51.608;6.916;2023-08-08T12:14:00;5.70;;;2.43;;
15712;SDS011;7957;51.608;6.916;2023-08-08T12:16:29;3.97;;;2.50;;
15712;SDS011;7957;51.608;6.916;2023-08-08T12:18:56;6.90;;;2.57;;
15712;SDS011;7957;51.608;6.916;2023-08-08T12:21:23;3.60;;;2.47;;
15712;SDS011;7957;51.608;6.916;2023-08-08T12:23:50;3.87;;;2.60;;
15712;SDS011;7957;51.608;6.916;2023-08-08T12:26:17;4.37;;;2.63;;
15712;SDS011;7957;51.608;6.916;2023-08-08T12:28:44;4.97;;;2.43;;
15712;SDS011;7957;51.608;6.916;2023-08-08T12:31:11;4.63;;;2.57;;
15712;SDS011;7957;51.608;6.916;2023-08-08T12:33:39;3.73;;;2.50;;
15712;SDS011;7957;51.608;6.916;2023-08-08T12:36:06;5.97;;;2.50;;
15712;SDS011;7957;51.608;6.916;2023-08-08T12:38:33;4.87;;;2.57;;
15712;SDS011;7957;51.608;6.916;2023-08-08T12:41:00;4.00;;;2.10;;
15712;SDS011;7957;51.608;6.916;2023-08-08T12:43:27;4.27;;;2.40;;
15712;SDS011;7957;51.608;6.916;2023-08-08T12:45:54;5.60;;;2.30;;
15712;SDS011;7957;51.608;6.916;2023-08-08T12:48:21;5.70;;;2.20;;
15712;SDS011;7957;51.608;6.916;2023-08-08T12:50:49;4.07;;;2.13;;
15712;SDS011;7957;51.608;6.916;2023-08-08T12:53:16;4.87;;;2.03;;
15712;SDS011;7957;51.608;6.916;2023-08-08T12:55:43;3.37;;;2.27;;
15712;SDS011;7957;51.608;6.916;2023-08-08T12:58:10;5.30;;;2.47;;
15712;SDS011;7957;51.608;6.916;2023-08-08T13:00:37;2.73;;;1.90;;
15712;SDS011;7957;51.608;6.916;2023-08-08T13:03:04;4.07;;;2.23;;
15712;SDS011;7957;51.608;6.916;2023-08-08T13:05:31;4.90;;;2.40;;
15712;SDS011;7957;51.608;6.916;2023-08-08T13:08:00;5.43;;;2.20;;
15712;SDS011;7957;51.608;6.916;2023-08-08T13:10:27;3.93;;;1.90;;
15712;SDS011;7957;51.608;6.916;2023-08-08T13:12:55;4.50;;;2.17;;
15712;SDS011;7957;51.608;6.916;2023-08-08T13:15:22;6.27;;;2.33;;
15712;SDS011;7957;51.608;6.916;2023-08-08T13:17:49;4.00;;;2.30;;
15712;SDS011;7957;51.608;6.916;2023-08-08T13:20:16;5.43;;;2.10;;
15712;SDS011;7957;51.608;6.916;2023-08-08T13:22:43;3.83;;;2.20;;
15712;SDS011;7957;51.608;6.916;2023-08-08T13:25:11;6.80;;;2.40;;
15712;SDS011;7957;51.608;6.916;2023-08-08T13:27:38;5.53;;;2.33;;
15712;SDS011;7957;51.608;6.916;2023-08-08T13:30:07;3.50;;;2.43;;
15712;SDS011;7957;51.608;6.916;2023-08-08T13:32:35;5.27;;;2.90;;
15712;SDS011;7957;51.608;6.916;2023-08-08T13:35:02;5.20;;;2.50;;
15712;SDS011;7957;51.608;6.916;2023-08-08T13:37:29;5.47;;;2.57;;
15712;SDS011;7957;51.608;6.916;2023-08-08T13:39:56;4.50;;;2.40;;
15712;SDS011;7957;51.608;6.916;2023-08-08T13:42:25;4.70;;;2.43;;
15712;SDS011;7957;51.608;6.916;2023-08-08T13:44:52;5.23;;;2.40;;
15712;SDS011;7957;51.608;6.916;2023-08-08T13:47:18;3.67;;;2.40;;
15712;SDS011;7957;51.608;6.916;2023-08-08T13:49:45;5.03;;;2.20;;
15712;SDS011;7957;51.608;6.916;2023-08-08T13:52:12;5.47;;;2.50;;
15712;SDS011;7957;51.608;6.916;2023-08-08T13:54:39;4.13;;;2.80;;
15712;SDS011;7957;51.608;6.916;2023-08-08T13:57:06;5.83;;;2.70;;
15712;SDS011;7957;51.608;6.916;2023-08-08T13:59:34;5.17;;;2.90;;
15712;SDS011;7957;51.608;6.916;2023-08-08T14:02:02;4.13;;;2.73;;
15712;SDS011;7957;51.608;6.916;2023-08-08T14:04:28;5.23;;;2.60;;
15712;SDS011;7957;51.608;6.916;2023-08-08T14:06:55;4.27;;;2.50;;
15712;SDS011;7957;51.608;6.916;2023-08-08T14:09:22;5.10;;;2.63;;
15712;SDS011;7957;51.608;6.916;2023-08-08T14:11:49;4.40;;;2.50;;
15712;SDS011;7957;51.608;6.916;2023-08-08T14:14:16;4.80;;;2.63;;
15712;SDS011;7957;51.608;6.916;2023-08-08T14:16:44;5.40;;;2.67;;
15712;SDS011;7957;51.608;6.916;2023-08-08T14:19:11;6.70;;;2.70;;
15712;SDS011;7957;51.608;6.916;2023-08-08T14:21:39;2.60;;;2.30;;
15712;SDS011;7957;51.608;6.916;2023-08-08T14:24:06;3.70;;;2.40;;
15712;SDS011;7957;51.608;6.916;2023-08-08T14:26:33;4.37;;;2.47;;
15712;SDS011;7957;51.608;6.916;2023-08-08T14:29:00;5.40;;;2.30;;
15712;SDS011;7957;51.608;6.916;2023-08-08T14:31:27;4.13;;;2.23;;
15712;SDS011;7957;51.608;6.916;2023-08-08T14:33:56;3.53;;;2.23;;
15712;SDS011;7957;51.608;6.916;2023-08-08T14:36:23;4.37;;;2.20;;
15712;SDS011;7957;51.608;6.916;2023-08-08T14:38:50;3.50;;;1.87;;
15712;SDS011;7957;51.608;6.916;2023-08-08T14:41:17;3.47;;;2.00;;
15712;SDS011;7957;51.608;6.916;2023-08-08T14:43:44;4.33;;;2.10;;
15712;SDS011;7957;51.608;6.916;2023-08-08T14:46:11;3.90;;;1.90;;
15712;SDS011;7957;51.608;6.916;2023-08-08T14:48:38;2.67;;;1.90;;
15712;SDS011;7957;51.608;6.916;2023-08-08T14:51:06;3.00;;;2.00;;
15712;SDS011;7957;51.608;6.916;2023-08-08T14:53:33;3.13;;;2.00;;
15712;SDS011;7957;51.608;6.916;2023-08-08T14:56:00;2.70;;;1.77;;
15712;SDS011;7957;51.608;6.916;2023-08-08T14:58:27;3.43;;;1.93;;
15712;SDS011;7957;51.608;6.916;2023-08-08T15:00:57;2.83;;;1.57;;
15712;SDS011;7957;51.608;6.916;2023-08-08T15:03:24;2.67;;;1.73;;